createdAt,value
2022-08-31T00:00:38.863Z,1.30
2022-08-31T00:01:19.385Z,1.20
2022-08-31T00:02:00.267Z,1.30
2022-08-31T00:02:41.327Z,1.20
2022-08-31T00:03:22.915Z,1.17
2022-08-31T00:04:03.697Z,1.30
2022-08-31T00:04:30.208Z,1.38
2022-08-31T00:04:53.434Z,1.20
2022-08-31T00:05:16.028Z,1.38
2022-08-31T00:05:39.083Z,1.30
2022-08-31T00:06:02.568Z,1.15
2022-08-31T00:06:24.570Z,1.30
2022-08-31T00:06:51.411Z,1.20
2022-08-31T00:07:16.480Z,1.10
2022-08-31T00:07:38.635Z,1.10
2022-08-31T00:08:02.531Z,1.23
2022-08-31T00:08:25.242Z,1.23
2022-08-31T00:08:47.530Z,1.30
2022-08-31T00:09:09.729Z,1.30
2022-08-31T00:09:33.145Z,1.30
2022-08-31T00:09:55.375Z,1.20
2022-08-31T00:10:20.072Z,1.15
2022-08-31T00:10:55.726Z,1.40
2022-08-31T00:11:20.182Z,1.25
2022-08-31T00:11:42.180Z,1.20
2022-08-31T00:12:04.533Z,1.25
2022-08-31T00:12:26.971Z,1.20
2022-08-31T00:12:49.678Z,1.40
2022-08-31T00:13:11.868Z,1.35
2022-08-31T00:13:34.120Z,1.35
2022-08-31T00:14:03.407Z,1.50
2022-08-31T00:14:26.022Z,1.42
2022-08-31T00:14:49.171Z,1.40
2022-08-31T00:15:15.853Z,1.23
2022-08-31T00:15:39.500Z,1.30
2022-08-31T00:16:01.409Z,1.20
2022-08-31T00:16:24.948Z,1.40
2022-08-31T00:16:48.359Z,1.35
2022-08-31T00:17:10.486Z,1.23
2022-08-31T00:17:32.474Z,1.33
2022-08-31T00:17:56.170Z,1.30
2022-08-31T00:18:19.295Z,1.40
2022-08-31T00:18:41.409Z,1.45
2022-08-31T00:19:04.199Z,1.20
2022-08-31T00:19:27.385Z,1.30
2022-08-31T00:19:49.212Z,1.35
2022-08-31T00:20:31.650Z,1.30
2022-08-31T00:20:55.326Z,1.30
2022-08-31T00:21:17.170Z,1.30
2022-08-31T00:21:39.543Z,1.33
2022-08-31T00:22:01.443Z,1.38
2022-08-31T00:22:23.348Z,1.50
2022-08-31T00:22:45.372Z,1.40
2022-08-31T00:23:10.215Z,1.30
2022-08-31T00:23:32.261Z,1.60
2022-08-31T00:23:54.841Z,1.50
2022-08-31T00:24:16.766Z,1.48
2022-08-31T00:24:38.964Z,1.40
2022-08-31T00:25:00.854Z,1.50
2022-08-31T00:25:24.010Z,1.20
2022-08-31T00:25:48.132Z,1.48
2022-08-31T00:26:09.919Z,1.60
2022-08-31T00:26:32.037Z,1.30
2022-08-31T00:26:53.973Z,1.40
2022-08-31T00:27:16.090Z,1.30
2022-08-31T00:27:38.173Z,1.20
2022-08-31T00:28:01.348Z,1.30
2022-08-31T00:28:23.881Z,1.40
2022-08-31T00:28:46.386Z,1.30
2022-08-31T00:29:08.886Z,1.40
2022-08-31T00:29:30.886Z,1.40
2022-08-31T00:29:52.672Z,1.30
2022-08-31T00:30:14.827Z,1.40
2022-08-31T00:30:36.999Z,1.40
2022-08-31T00:30:59.069Z,1.30
2022-08-31T00:31:21.003Z,1.35
2022-08-31T00:31:43.180Z,1.50
2022-08-31T00:32:05.177Z,1.42
2022-08-31T00:32:28.845Z,1.35
2022-08-31T00:32:50.867Z,1.30
2022-08-31T00:33:14.528Z,1.30
2022-08-31T00:33:36.838Z,1.35
2022-08-31T00:33:58.834Z,1.30
2022-08-31T00:34:22.431Z,1.30
2022-08-31T00:34:44.560Z,1.33
2022-08-31T00:35:07.649Z,1.40
2022-08-31T00:35:31.753Z,1.30
2022-08-31T00:35:53.651Z,1.40
2022-08-31T00:36:16.702Z,1.40
2022-08-31T00:36:38.613Z,1.48
2022-08-31T00:37:02.031Z,1.20
2022-08-31T00:37:23.810Z,1.25
2022-08-31T00:37:45.659Z,1.23
2022-08-31T00:38:14.282Z,1.40
2022-08-31T00:38:38.367Z,1.40
2022-08-31T00:39:00.194Z,1.33
2022-08-31T00:39:22.480Z,1.30
2022-08-31T00:39:44.276Z,1.40
2022-08-31T00:40:06.659Z,1.40
2022-08-31T00:40:28.931Z,1.20
2022-08-31T00:40:50.868Z,1.20
2022-08-31T00:41:12.887Z,1.30
2022-08-31T00:41:38.226Z,1.15
2022-08-31T00:42:00.033Z,1.40
2022-08-31T00:42:21.995Z,1.33
2022-08-31T00:42:44.903Z,1.30
2022-08-31T00:43:07.142Z,1.40
2022-08-31T00:43:40.568Z,1.30
2022-08-31T00:44:06.827Z,1.30
2022-08-31T00:44:28.649Z,1.40
2022-08-31T00:44:52.031Z,1.27
2022-08-31T00:45:16.967Z,1.33
2022-08-31T00:45:38.847Z,1.52
2022-08-31T00:46:00.753Z,1.23
2022-08-31T00:46:27.144Z,1.25
2022-08-31T00:46:49.106Z,1.20
2022-08-31T00:47:11.330Z,1.30
2022-08-31T00:47:33.228Z,1.30
2022-08-31T00:47:55.524Z,1.30
2022-08-31T00:48:17.308Z,1.50
2022-08-31T00:48:46.197Z,1.63
2022-08-31T00:49:12.415Z,1.40
2022-08-31T00:49:37.695Z,1.38
2022-08-31T00:50:00.405Z,1.50
2022-08-31T00:50:24.781Z,1.52
2022-08-31T00:50:46.916Z,1.70
2022-08-31T00:51:09.260Z,1.50
2022-08-31T00:51:39.457Z,1.35
2022-08-31T00:52:04.034Z,1.30
2022-08-31T00:52:37.410Z,1.40
2022-08-31T00:53:02.234Z,1.52
2022-08-31T00:53:24.725Z,1.35
2022-08-31T00:53:48.076Z,1.50
2022-08-31T00:54:16.714Z,1.40
2022-08-31T00:54:44.483Z,1.30
2022-08-31T00:55:09.083Z,1.40
2022-08-31T00:55:35.363Z,1.48
2022-08-31T00:55:57.985Z,1.52
2022-08-31T00:56:20.662Z,1.40
2022-08-31T00:56:44.977Z,1.40
2022-08-31T00:57:08.299Z,1.45
2022-08-31T00:57:34.391Z,1.42
2022-08-31T00:58:00.329Z,1.55
2022-08-31T00:58:22.661Z,1.40
2022-08-31T00:58:45.616Z,1.50
2022-08-31T00:59:19.534Z,1.40
2022-08-31T00:59:44.445Z,1.60
2022-08-31T01:00:12.667Z,1.40
2022-08-31T01:00:34.706Z,1.63
2022-08-31T01:00:57.518Z,1.48
2022-08-31T01:01:20.323Z,1.42
2022-08-31T01:01:42.568Z,1.40
2022-08-31T01:02:04.786Z,1.40
2022-08-31T01:02:27.239Z,1.48
2022-08-31T01:02:52.711Z,1.30
2022-08-31T01:03:15.768Z,1.40
2022-08-31T01:03:37.551Z,1.15
2022-08-31T01:04:00.196Z,1.30
2022-08-31T01:04:22.140Z,1.30
2022-08-31T01:04:44.402Z,1.38
2022-08-31T01:05:10.468Z,1.10
2022-08-31T01:05:32.762Z,1.35
2022-08-31T01:05:54.609Z,1.40
2022-08-31T01:06:18.106Z,1.30
2022-08-31T01:06:41.907Z,1.40
2022-08-31T01:07:06.336Z,1.40
2022-08-31T01:07:28.212Z,1.30
2022-08-31T01:07:51.175Z,1.30
2022-08-31T01:08:13.490Z,1.25
2022-08-31T01:08:35.555Z,1.40
2022-08-31T01:08:59.956Z,1.50
2022-08-31T01:09:25.217Z,1.40
2022-08-31T01:09:55.450Z,1.50
2022-08-31T01:10:21.094Z,1.40
2022-08-31T01:10:44.944Z,1.48
2022-08-31T01:11:07.169Z,1.50
2022-08-31T01:11:29.343Z,1.40
2022-08-31T01:11:51.826Z,1.33
2022-08-31T01:12:14.090Z,1.52
2022-08-31T01:12:36.004Z,1.55
2022-08-31T01:12:59.232Z,1.30
2022-08-31T01:13:21.606Z,1.40
2022-08-31T01:13:45.110Z,1.40
2022-08-31T01:14:08.291Z,1.50
2022-08-31T01:14:30.348Z,1.50
2022-08-31T01:14:52.791Z,1.40
2022-08-31T01:15:16.032Z,1.33
2022-08-31T01:15:39.748Z,1.50
2022-08-31T01:16:06.663Z,1.20
2022-08-31T01:16:37.737Z,1.30
2022-08-31T01:17:00.202Z,1.52
2022-08-31T01:17:23.057Z,1.30
2022-08-31T01:17:48.178Z,1.40
2022-08-31T01:18:12.157Z,1.42
2022-08-31T01:18:35.153Z,1.30
2022-08-31T01:18:58.785Z,1.13
2022-08-31T01:19:33.786Z,1.25
2022-08-31T01:20:11.521Z,1.27
2022-08-31T01:20:54.477Z,1.30
2022-08-31T01:21:41.382Z,1.30
2022-08-31T01:22:11.645Z,1.33
2022-08-31T01:22:44.424Z,1.20
2022-08-31T01:23:14.965Z,1.40
2022-08-31T01:23:44.671Z,1.40
2022-08-31T01:24:08.221Z,1.50
2022-08-31T01:24:32.866Z,1.60
2022-08-31T01:24:58.178Z,1.40
2022-08-31T01:25:21.525Z,1.30
2022-08-31T01:25:46.250Z,1.20
2022-08-31T01:26:09.573Z,1.20
2022-08-31T01:26:32.928Z,1.52
2022-08-31T01:26:57.183Z,1.33
2022-08-31T01:27:24.583Z,1.40
2022-08-31T01:27:46.843Z,1.20
2022-08-31T01:28:10.507Z,1.30
2022-08-31T01:28:32.398Z,1.45
2022-08-31T01:28:58.454Z,1.30
2022-08-31T01:29:20.492Z,1.60
2022-08-31T01:29:42.402Z,1.40
2022-08-31T01:30:09.718Z,1.50
2022-08-31T01:30:33.717Z,1.20
2022-08-31T01:31:08.320Z,1.20
2022-08-31T01:31:43.153Z,1.30
2022-08-31T01:32:05.919Z,1.30
2022-08-31T01:32:27.697Z,1.42
2022-08-31T01:32:50.047Z,1.50
2022-08-31T01:33:13.347Z,1.45
2022-08-31T01:33:38.740Z,1.30
2022-08-31T01:34:00.883Z,1.33
2022-08-31T01:34:22.933Z,1.27
2022-08-31T01:34:44.756Z,1.27
2022-08-31T01:35:07.510Z,1.38
2022-08-31T01:35:34.936Z,1.27
2022-08-31T01:35:57.578Z,1.25
2022-08-31T01:36:20.776Z,1.30
2022-08-31T01:36:45.495Z,1.17
2022-08-31T01:37:07.482Z,1.40
2022-08-31T01:37:30.384Z,1.45
2022-08-31T01:37:53.233Z,1.58
2022-08-31T01:38:15.075Z,1.35
2022-08-31T01:38:37.459Z,1.30
2022-08-31T01:38:59.322Z,1.50
2022-08-31T01:39:21.678Z,1.20
2022-08-31T01:39:43.661Z,1.20
2022-08-31T01:40:06.248Z,1.30
2022-08-31T01:40:36.127Z,1.38
2022-08-31T01:41:03.723Z,1.58
2022-08-31T01:41:25.581Z,1.35
2022-08-31T01:41:47.457Z,1.30
2022-08-31T01:42:09.283Z,1.48
2022-08-31T01:42:33.572Z,1.40
2022-08-31T01:42:56.323Z,1.50
2022-08-31T01:43:18.496Z,1.23
2022-08-31T01:43:40.863Z,1.30
2022-08-31T01:44:03.149Z,1.30
2022-08-31T01:44:27.950Z,1.20
2022-08-31T01:44:51.107Z,1.38
2022-08-31T01:45:14.777Z,1.38
2022-08-31T01:45:36.562Z,1.15
2022-08-31T01:45:58.491Z,1.30
2022-08-31T01:46:21.521Z,1.52
2022-08-31T01:46:43.832Z,1.30
2022-08-31T01:47:06.402Z,1.48
2022-08-31T01:47:28.297Z,1.30
2022-08-31T01:47:50.083Z,1.20
2022-08-31T01:48:12.636Z,1.30
2022-08-31T01:48:35.808Z,1.27
2022-08-31T01:49:03.274Z,1.25
2022-08-31T01:49:25.280Z,1.10
2022-08-31T01:49:47.159Z,1.20
2022-08-31T01:50:09.872Z,1.20
2022-08-31T01:50:31.951Z,1.10
2022-08-31T01:50:53.842Z,1.20
2022-08-31T01:51:20.141Z,1.33
2022-08-31T01:51:42.443Z,1.40
2022-08-31T01:52:06.167Z,1.38
2022-08-31T01:52:28.822Z,1.20
2022-08-31T01:52:50.657Z,1.40
2022-08-31T01:53:12.850Z,1.40
2022-08-31T01:53:35.239Z,1.40
2022-08-31T01:53:58.589Z,1.35
2022-08-31T01:54:22.585Z,1.38
2022-08-31T01:54:44.728Z,1.20
2022-08-31T01:55:08.080Z,1.20
2022-08-31T01:55:29.941Z,1.33
2022-08-31T01:55:51.987Z,1.30
2022-08-31T01:56:19.964Z,1.30
2022-08-31T01:56:45.979Z,1.20
2022-08-31T01:57:07.889Z,1.35
2022-08-31T01:57:33.434Z,1.27
2022-08-31T01:58:01.892Z,1.20
2022-08-31T01:58:24.091Z,1.25
2022-08-31T01:58:46.559Z,1.40
2022-08-31T01:59:10.131Z,1.27
2022-08-31T01:59:32.014Z,1.42
2022-08-31T01:59:53.788Z,1.20
2022-08-31T02:00:15.861Z,1.30
2022-08-31T02:00:38.246Z,1.17
2022-08-31T02:01:00.700Z,1.27
2022-08-31T02:01:32.791Z,1.40
2022-08-31T02:01:57.209Z,1.50
2022-08-31T02:02:19.103Z,1.42
2022-08-31T02:02:42.071Z,1.40
2022-08-31T02:03:07.818Z,1.13
2022-08-31T02:03:29.654Z,1.27
2022-08-31T02:03:51.391Z,1.20
2022-08-31T02:04:15.366Z,1.23
2022-08-31T02:04:37.543Z,1.20
2022-08-31T02:05:00.008Z,1.23
2022-08-31T02:05:22.219Z,1.50
2022-08-31T02:05:44.003Z,1.40
2022-08-31T02:06:14.291Z,1.45
2022-08-31T02:06:37.515Z,1.50
2022-08-31T02:07:01.039Z,1.30
2022-08-31T02:07:23.312Z,1.13
2022-08-31T02:07:46.030Z,1.10
2022-08-31T02:08:10.334Z,1.42
2022-08-31T02:08:32.203Z,1.50
2022-08-31T02:08:54.060Z,1.30
2022-08-31T02:09:16.262Z,1.20
2022-08-31T02:09:38.032Z,1.48
2022-08-31T02:10:00.017Z,1.52
2022-08-31T02:10:21.977Z,1.17
2022-08-31T02:10:44.324Z,1.30
2022-08-31T02:11:07.045Z,1.15
2022-08-31T02:11:29.193Z,1.20
2022-08-31T02:11:51.457Z,1.45
2022-08-31T02:12:13.309Z,1.35
2022-08-31T02:12:35.148Z,1.30
2022-08-31T02:12:57.552Z,1.35
2022-08-31T02:13:19.559Z,1.10
2022-08-31T02:13:41.688Z,1.33
2022-08-31T02:14:04.561Z,1.50
2022-08-31T02:14:26.577Z,1.40
2022-08-31T02:14:48.425Z,1.23
2022-08-31T02:15:10.434Z,1.42
2022-08-31T02:15:33.348Z,1.30
2022-08-31T02:15:55.896Z,1.30
2022-08-31T02:16:18.566Z,1.20
2022-08-31T02:16:42.394Z,1.42
2022-08-31T02:17:04.697Z,1.50
2022-08-31T02:17:27.389Z,1.27
2022-08-31T02:17:49.704Z,1.15
2022-08-31T02:18:14.593Z,1.30
2022-08-31T02:18:37.295Z,1.25
2022-08-31T02:18:59.542Z,1.27
2022-08-31T02:19:21.611Z,1.13
2022-08-31T02:19:43.594Z,1.20
2022-08-31T02:20:11.602Z,1.35
2022-08-31T02:20:33.411Z,1.17
2022-08-31T02:20:55.564Z,1.20
2022-08-31T02:21:17.626Z,1.30
2022-08-31T02:21:39.736Z,1.35
2022-08-31T02:22:01.713Z,1.50
2022-08-31T02:22:23.717Z,1.25
2022-08-31T02:22:46.241Z,1.33
2022-08-31T02:23:08.056Z,1.45
2022-08-31T02:23:32.564Z,1.27
2022-08-31T02:23:54.894Z,1.17
2022-08-31T02:24:18.468Z,1.13
2022-08-31T02:24:41.571Z,1.20
2022-08-31T02:25:05.618Z,1.20
2022-08-31T02:25:31.158Z,1.10
2022-08-31T02:25:53.068Z,1.40
2022-08-31T02:26:15.204Z,1.50
2022-08-31T02:26:39.574Z,1.40
2022-08-31T02:27:02.632Z,1.40
2022-08-31T02:27:24.588Z,1.40
2022-08-31T02:27:47.182Z,1.30
2022-08-31T02:28:12.785Z,1.30
2022-08-31T02:28:35.548Z,1.20
2022-08-31T02:28:58.633Z,1.38
2022-08-31T02:29:20.833Z,1.33
2022-08-31T02:29:42.678Z,1.45
2022-08-31T02:30:06.825Z,1.40
2022-08-31T02:30:29.276Z,1.25
2022-08-31T02:30:51.853Z,1.42
2022-08-31T02:31:14.805Z,1.45
2022-08-31T02:31:36.967Z,1.40
2022-08-31T02:31:58.874Z,1.30
2022-08-31T02:32:21.387Z,1.48
2022-08-31T02:32:43.567Z,1.40
2022-08-31T02:33:05.305Z,1.13
2022-08-31T02:33:27.349Z,1.10
2022-08-31T02:33:49.353Z,1.40
2022-08-31T02:38:25.343Z,1.27
2022-08-31T02:38:49.118Z,1.10
2022-08-31T02:39:12.054Z,1.38
2022-08-31T02:39:36.280Z,1.40
2022-08-31T02:40:00.557Z,1.40
2022-08-31T02:40:22.558Z,1.30
2022-08-31T02:40:44.924Z,1.30
2022-08-31T02:41:08.457Z,1.40
2022-08-31T02:41:30.267Z,1.20
2022-08-31T02:41:52.541Z,1.55
2022-08-31T02:42:14.352Z,1.48
2022-08-31T02:42:52.861Z,1.17
2022-08-31T02:43:16.494Z,1.20
2022-08-31T02:43:46.814Z,1.48
2022-08-31T02:44:09.105Z,1.40
2022-08-31T02:44:30.977Z,1.23
2022-08-31T02:44:52.873Z,1.38
2022-08-31T02:45:14.734Z,1.48
2022-08-31T02:45:37.842Z,1.35
2022-08-31T02:45:59.850Z,1.45
2022-08-31T02:46:22.009Z,1.20
2022-08-31T02:46:47.011Z,1.40
2022-08-31T02:47:08.975Z,1.15
2022-08-31T02:47:31.350Z,1.30
2022-08-31T02:47:54.509Z,1.10
2022-08-31T02:48:16.355Z,1.10
2022-08-31T02:48:38.541Z,1.25
2022-08-31T02:49:01.654Z,1.30
2022-08-31T02:49:23.785Z,1.20
2022-08-31T02:49:48.720Z,1.40
2022-08-31T02:50:10.790Z,1.30
2022-08-31T02:50:32.994Z,1.38
2022-08-31T02:50:55.092Z,1.25
2022-08-31T02:51:16.900Z,1.25
2022-08-31T02:51:42.471Z,1.30
2022-08-31T02:52:05.255Z,1.15
2022-08-31T02:52:27.070Z,1.20
2022-08-31T02:52:50.501Z,1.10
2022-08-31T02:53:14.283Z,1.30
2022-08-31T02:53:37.151Z,1.27
2022-08-31T02:54:01.050Z,1.50
2022-08-31T02:54:22.947Z,1.38
2022-08-31T02:54:47.211Z,1.30
2022-08-31T02:55:09.370Z,1.27
2022-08-31T02:55:31.231Z,1.33
2022-08-31T02:55:53.039Z,1.15
2022-08-31T02:56:16.379Z,1.10
2022-08-31T02:56:38.503Z,1.10
2022-08-31T02:57:00.842Z,1.05
2022-08-31T02:57:23.273Z,1.50
2022-08-31T02:57:45.078Z,1.40
2022-08-31T02:58:07.047Z,1.13
2022-08-31T02:58:28.886Z,1.15
2022-08-31T02:58:55.409Z,1.10
2022-08-31T02:59:20.072Z,1.15
2022-08-31T02:59:41.852Z,1.20
2022-08-31T03:00:05.565Z,1.30
2022-08-31T03:00:27.600Z,1.38
2022-08-31T03:00:49.404Z,1.38
2022-08-31T03:01:11.712Z,1.35
2022-08-31T03:01:35.466Z,1.20
2022-08-31T03:01:57.455Z,1.40
2022-08-31T03:02:19.509Z,1.40
2022-08-31T03:02:41.576Z,1.40
2022-08-31T03:03:03.739Z,1.40
2022-08-31T03:03:25.660Z,1.20
2022-08-31T03:03:48.774Z,1.30
2022-08-31T03:04:10.739Z,1.20
2022-08-31T03:04:32.711Z,1.40
2022-08-31T03:04:56.775Z,1.23
2022-08-31T03:05:18.905Z,1.30
2022-08-31T03:05:41.297Z,1.40
2022-08-31T03:06:03.799Z,1.60
2022-08-31T03:06:25.657Z,1.38
2022-08-31T03:06:48.128Z,1.42
2022-08-31T03:07:09.902Z,1.33
2022-08-31T03:07:33.687Z,1.38
2022-08-31T03:07:55.660Z,1.23
2022-08-31T03:08:19.249Z,1.38
2022-08-31T03:08:42.246Z,1.10
2022-08-31T03:09:04.875Z,1.23
2022-08-31T03:09:26.660Z,1.40
2022-08-31T03:09:48.459Z,1.30
2022-08-31T03:10:14.176Z,1.30
2022-08-31T03:10:36.281Z,1.40
2022-08-31T03:10:58.113Z,1.33
2022-08-31T03:11:20.103Z,1.10
2022-08-31T03:11:42.240Z,1.40
2022-08-31T03:12:04.213Z,1.20
2022-08-31T03:12:26.481Z,1.20
2022-08-31T03:12:49.371Z,1.50
2022-08-31T03:13:11.596Z,1.48
2022-08-31T03:13:34.291Z,1.20
2022-08-31T03:13:58.639Z,1.30
2022-08-31T03:14:20.815Z,1.33
2022-08-31T03:14:42.613Z,1.10
2022-08-31T03:15:06.911Z,1.02
2022-08-31T03:15:29.807Z,1.48
2022-08-31T03:15:52.503Z,1.27
2022-08-31T03:16:17.345Z,1.23
2022-08-31T03:16:40.988Z,1.30
2022-08-31T03:17:02.868Z,1.33
2022-08-31T03:17:24.661Z,1.40
2022-08-31T03:17:47.459Z,1.35
2022-08-31T03:18:10.141Z,1.38
2022-08-31T03:18:33.045Z,1.27
2022-08-31T03:18:54.858Z,1.20
2022-08-31T03:19:16.724Z,1.33
2022-08-31T03:19:41.533Z,1.23
2022-08-31T03:20:06.009Z,1.20
2022-08-31T03:20:28.698Z,1.70
2022-08-31T03:20:50.524Z,1.47
2022-08-31T03:21:12.584Z,1.00
2022-08-31T03:21:34.673Z,1.20
2022-08-31T03:21:56.464Z,1.40
2022-08-31T03:22:18.241Z,1.20
2022-08-31T03:22:45.659Z,1.10
2022-08-31T03:23:07.718Z,1.17
2022-08-31T03:23:30.667Z,1.20
2022-08-31T03:23:52.496Z,1.27
2022-08-31T03:24:17.349Z,1.20
2022-08-31T03:24:39.303Z,1.17
2022-08-31T03:25:01.246Z,1.40
2022-08-31T03:25:23.579Z,1.40
2022-08-31T03:25:45.623Z,1.50
2022-08-31T03:26:07.612Z,1.38
2022-08-31T03:26:29.508Z,1.20
2022-08-31T03:26:51.318Z,1.25
2022-08-31T03:27:13.213Z,1.30
2022-08-31T03:27:36.225Z,1.60
2022-08-31T03:27:58.077Z,1.30
2022-08-31T03:28:20.489Z,1.38
2022-08-31T03:28:42.343Z,1.20
2022-08-31T03:29:04.643Z,1.10
2022-08-31T03:29:26.506Z,1.27
2022-08-31T03:29:48.277Z,1.48
2022-08-31T03:30:13.606Z,1.40
2022-08-31T03:30:35.428Z,1.40
2022-08-31T03:30:57.301Z,1.40
2022-08-31T03:31:20.155Z,1.13
2022-08-31T03:31:42.107Z,1.20
2022-08-31T03:32:04.072Z,1.27
2022-08-31T03:32:27.514Z,1.38
2022-08-31T03:32:50.227Z,1.30
2022-08-31T03:33:14.246Z,1.15
2022-08-31T03:33:36.613Z,1.10
2022-08-31T03:33:59.270Z,1.23
2022-08-31T03:34:21.065Z,1.40
2022-08-31T03:34:45.589Z,1.25
2022-08-31T03:35:07.838Z,1.23
2022-08-31T03:35:33.072Z,1.33
2022-08-31T03:35:55.563Z,1.30
2022-08-31T03:36:17.773Z,1.38
2022-08-31T03:36:42.326Z,1.17
2022-08-31T03:37:04.516Z,1.25
2022-08-31T03:37:27.408Z,1.50
2022-08-31T03:37:49.226Z,1.30
2022-08-31T03:38:15.830Z,1.40
2022-08-31T03:38:38.988Z,1.13
2022-08-31T03:39:00.810Z,1.25
2022-08-31T03:39:22.562Z,1.25
2022-08-31T03:39:44.618Z,1.38
2022-08-31T03:40:08.476Z,1.35
2022-08-31T03:40:31.385Z,1.30
2022-08-31T03:40:53.292Z,1.13
2022-08-31T03:41:18.784Z,1.10
2022-08-31T03:41:40.732Z,1.00
2022-08-31T03:42:02.911Z,1.02
2022-08-31T03:42:26.187Z,1.17
2022-08-31T03:42:50.751Z,1.30
2022-08-31T03:43:13.962Z,1.40
2022-08-31T03:43:36.746Z,1.38
2022-08-31T03:44:01.910Z,1.40
2022-08-31T03:44:24.081Z,1.20
2022-08-31T03:44:47.462Z,1.17
2022-08-31T03:45:09.703Z,1.10
2022-08-31T03:45:32.358Z,1.13
2022-08-31T03:45:54.621Z,1.23
2022-08-31T03:46:16.554Z,1.13
2022-08-31T03:46:45.679Z,1.33
2022-08-31T03:47:08.335Z,1.40
2022-08-31T03:47:31.089Z,1.20
2022-08-31T03:47:54.382Z,1.30
2022-08-31T03:48:16.810Z,1.20
2022-08-31T03:48:38.675Z,1.20
2022-08-31T03:49:02.654Z,1.27
2022-08-31T03:49:24.566Z,1.17
2022-08-31T03:49:46.590Z,1.20
2022-08-31T03:50:11.433Z,1.25
2022-08-31T03:50:34.953Z,1.20
2022-08-31T03:50:57.028Z,1.10
2022-08-31T03:51:20.224Z,1.10
2022-08-31T03:51:42.354Z,1.08
2022-08-31T03:52:04.363Z,1.00
2022-08-31T03:52:27.322Z,1.00
2022-08-31T03:52:49.859Z,1.20
2022-08-31T03:53:12.693Z,1.10
2022-08-31T03:53:35.503Z,1.10
2022-08-31T03:53:57.419Z,1.25
2022-08-31T03:54:19.677Z,1.38
2022-08-31T03:54:41.617Z,1.30
2022-08-31T03:55:04.877Z,1.25
2022-08-31T03:55:28.814Z,1.20
2022-08-31T03:55:52.061Z,1.02
2022-08-31T03:56:14.314Z,1.10
2022-08-31T03:56:36.130Z,1.30
2022-08-31T03:56:57.925Z,1.00
2022-08-31T03:57:19.713Z,1.10
2022-08-31T03:57:41.922Z,1.20
2022-08-31T03:58:04.645Z,1.00
2022-08-31T03:58:31.808Z,1.08
2022-08-31T03:58:54.212Z,1.40
2022-08-31T03:59:16.075Z,1.25
2022-08-31T03:59:38.538Z,1.13
2022-08-31T04:00:00.581Z,1.20
2022-08-31T04:00:22.812Z,1.20
2022-08-31T04:00:44.629Z,1.17
2022-08-31T04:01:06.576Z,1.50
2022-08-31T04:01:28.483Z,1.13
2022-08-31T04:01:51.176Z,1.15
2022-08-31T04:02:13.298Z,1.10
2022-08-31T04:02:39.434Z,0.98
2022-08-31T04:03:02.000Z,1.00
2022-08-31T04:03:24.681Z,1.10
2022-08-31T04:03:46.521Z,1.10
2022-08-31T04:04:08.346Z,1.20
2022-08-31T04:04:30.186Z,1.10
2022-08-31T04:04:54.978Z,1.30
2022-08-31T04:05:17.912Z,1.25
2022-08-31T04:05:44.241Z,1.10
2022-08-31T04:06:13.320Z,1.20
2022-08-31T04:06:35.716Z,1.10
2022-08-31T04:06:57.593Z,0.95
2022-08-31T04:07:20.270Z,1.00
2022-08-31T04:07:43.234Z,1.17
2022-08-31T04:08:05.154Z,1.05
2022-08-31T04:08:27.271Z,0.98
2022-08-31T04:08:49.116Z,1.00
2022-08-31T04:09:12.096Z,0.90
2022-08-31T04:09:34.322Z,1.05
2022-08-31T04:09:56.147Z,1.00
2022-08-31T04:10:17.975Z,1.10
2022-08-31T04:10:43.468Z,1.30
2022-08-31T04:11:12.941Z,1.08
2022-08-31T04:11:45.261Z,1.02
2022-08-31T04:12:07.685Z,1.13
2022-08-31T04:12:29.638Z,1.10
2022-08-31T04:12:51.808Z,0.80
2022-08-31T04:13:13.893Z,1.15
2022-08-31T04:13:37.698Z,1.25
2022-08-31T04:13:59.445Z,1.00
2022-08-31T04:14:21.249Z,1.10
2022-08-31T04:14:43.440Z,0.98
2022-08-31T04:15:06.307Z,1.05
2022-08-31T04:15:29.341Z,1.25
2022-08-31T04:15:51.415Z,1.20
2022-08-31T04:16:16.358Z,1.05
2022-08-31T04:16:39.412Z,1.30
2022-08-31T04:17:01.229Z,1.00
2022-08-31T04:17:23.323Z,0.90
2022-08-31T04:17:46.474Z,1.02
2022-08-31T04:18:08.775Z,1.08
2022-08-31T04:18:31.037Z,1.10
2022-08-31T04:18:53.104Z,0.90
2022-08-31T04:19:16.600Z,0.93
2022-08-31T04:19:42.431Z,1.20
2022-08-31T04:20:06.005Z,1.00
2022-08-31T04:20:30.225Z,0.90
2022-08-31T04:20:52.248Z,1.02
2022-08-31T04:21:21.218Z,0.90
2022-08-31T04:21:44.381Z,1.00
2022-08-31T04:22:06.739Z,1.10
2022-08-31T04:22:28.696Z,1.10
2022-08-31T04:22:50.519Z,1.00
2022-08-31T04:23:12.585Z,1.10
2022-08-31T04:23:34.821Z,1.20
2022-08-31T04:23:58.670Z,0.90
2022-08-31T04:24:20.577Z,0.98
2022-08-31T04:24:42.586Z,1.13
2022-08-31T04:25:05.218Z,1.27
2022-08-31T04:25:27.415Z,1.60
2022-08-31T04:25:49.372Z,2.13
2022-08-31T04:26:24.015Z,1.27
2022-08-31T04:26:46.028Z,1.13
2022-08-31T04:27:07.882Z,1.10
2022-08-31T04:27:29.779Z,0.90
2022-08-31T04:27:54.146Z,0.95
2022-08-31T04:28:15.919Z,1.10
2022-08-31T04:28:40.564Z,1.10
2022-08-31T04:29:04.635Z,1.00
2022-08-31T04:29:26.565Z,1.00
2022-08-31T04:29:48.675Z,0.90
2022-08-31T04:30:11.192Z,1.00
2022-08-31T04:30:35.869Z,1.07
2022-08-31T04:30:57.720Z,0.90
2022-08-31T04:31:21.049Z,0.80
2022-08-31T04:31:43.619Z,0.80
2022-08-31T04:32:05.965Z,0.93
2022-08-31T04:32:27.798Z,1.05
2022-08-31T04:32:54.401Z,0.98
2022-08-31T04:33:17.435Z,1.08
2022-08-31T04:33:41.497Z,1.30
2022-08-31T04:34:04.502Z,1.10
2022-08-31T04:34:26.492Z,1.10
2022-08-31T04:34:48.274Z,0.80
2022-08-31T04:35:19.269Z,1.00
2022-08-31T04:35:41.782Z,0.82
2022-08-31T04:36:12.611Z,0.93
2022-08-31T04:36:34.712Z,1.20
2022-08-31T04:36:56.650Z,1.10
2022-08-31T04:37:18.549Z,1.10
2022-08-31T04:37:46.362Z,0.90
2022-08-31T04:38:10.108Z,0.90
2022-08-31T04:38:33.059Z,0.90
2022-08-31T04:38:58.135Z,1.00
2022-08-31T04:39:21.048Z,0.90
2022-08-31T04:39:50.567Z,0.85
2022-08-31T04:40:19.703Z,1.00
2022-08-31T04:40:43.410Z,1.38
2022-08-31T04:41:09.636Z,1.15
2022-08-31T04:41:35.637Z,0.80
2022-08-31T04:41:57.428Z,0.90
2022-08-31T04:42:19.396Z,0.90
2022-08-31T04:42:41.496Z,1.02
2022-08-31T04:43:03.633Z,1.08
2022-08-31T04:43:25.664Z,1.10
2022-08-31T04:43:50.489Z,1.00
2022-08-31T04:44:16.441Z,0.90
2022-08-31T04:44:41.291Z,0.93
2022-08-31T04:45:03.999Z,1.10
2022-08-31T04:45:26.346Z,1.20
2022-08-31T04:45:48.225Z,1.05
2022-08-31T04:46:10.232Z,0.80
2022-08-31T04:46:33.594Z,1.00
2022-08-31T04:46:55.804Z,1.20
2022-08-31T04:47:18.005Z,0.90
2022-08-31T04:47:41.931Z,1.00
2022-08-31T04:48:04.218Z,1.13
2022-08-31T04:48:26.220Z,1.00
2022-08-31T04:48:49.225Z,1.00
2022-08-31T04:49:14.585Z,0.93
2022-08-31T04:49:36.700Z,0.85
2022-08-31T04:49:58.468Z,1.00
2022-08-31T04:50:20.616Z,0.95
2022-08-31T04:50:43.436Z,0.90
2022-08-31T04:51:12.131Z,0.90
2022-08-31T04:51:37.155Z,1.00
2022-08-31T04:51:59.270Z,1.00
2022-08-31T04:52:28.341Z,0.90
2022-08-31T04:53:03.406Z,0.80
2022-08-31T04:53:25.795Z,0.70
2022-08-31T04:53:48.394Z,0.73
2022-08-31T04:54:14.023Z,1.00
2022-08-31T04:54:35.801Z,0.90
2022-08-31T04:54:57.579Z,0.90
2022-08-31T04:55:19.580Z,1.15
2022-08-31T04:55:44.189Z,1.23
2022-08-31T04:56:09.791Z,1.10
2022-08-31T04:56:35.685Z,0.90
2022-08-31T04:56:59.084Z,1.02
2022-08-31T04:57:21.150Z,1.00
2022-08-31T04:57:43.150Z,1.13
2022-08-31T04:58:05.459Z,0.95
2022-08-31T04:58:27.198Z,0.90
2022-08-31T04:58:56.356Z,0.93
2022-08-31T04:59:18.846Z,1.08
2022-08-31T04:59:40.911Z,0.88
2022-08-31T05:00:05.376Z,1.00
2022-08-31T05:00:28.943Z,0.90
2022-08-31T05:00:53.386Z,1.10
2022-08-31T05:01:18.216Z,1.10
2022-08-31T05:01:44.689Z,1.13
2022-08-31T05:02:06.703Z,0.93
2022-08-31T05:02:30.598Z,1.10
2022-08-31T05:02:54.069Z,1.00
2022-08-31T05:03:16.233Z,1.13
2022-08-31T05:03:38.510Z,1.17
2022-08-31T05:04:00.405Z,1.10
2022-08-31T05:04:25.978Z,1.13
2022-08-31T05:04:47.760Z,1.00
2022-08-31T05:05:10.086Z,0.90
2022-08-31T05:05:31.905Z,1.00
2022-08-31T05:05:53.768Z,0.90
2022-08-31T05:06:17.618Z,0.70
2022-08-31T05:06:42.371Z,0.70
2022-08-31T05:07:04.412Z,0.98
2022-08-31T05:07:27.427Z,1.10
2022-08-31T05:07:49.285Z,0.90
2022-08-31T05:08:12.829Z,0.90
2022-08-31T05:08:35.067Z,0.95
2022-08-31T05:08:59.204Z,0.82
2022-08-31T05:09:23.555Z,0.80
2022-08-31T05:09:45.406Z,1.10
2022-08-31T05:10:07.673Z,1.00
2022-08-31T05:10:29.729Z,0.80
2022-08-31T05:10:52.233Z,1.00
2022-08-31T05:11:19.037Z,0.90
2022-08-31T05:11:44.875Z,0.95
2022-08-31T05:12:06.889Z,1.20
2022-08-31T05:12:28.779Z,1.10
2022-08-31T05:12:52.111Z,1.00
2022-08-31T05:13:14.097Z,1.00
2022-08-31T05:13:37.752Z,0.82
2022-08-31T05:14:01.234Z,0.93
2022-08-31T05:14:24.373Z,0.90
2022-08-31T05:14:47.786Z,0.88
2022-08-31T05:15:10.101Z,1.17
2022-08-31T05:15:32.540Z,1.00
2022-08-31T05:15:55.611Z,0.90
2022-08-31T05:16:17.984Z,0.80
2022-08-31T05:16:41.873Z,0.90
2022-08-31T05:17:08.063Z,0.70
2022-08-31T05:17:36.962Z,1.10
2022-08-31T05:17:59.041Z,0.90